Notre Dame, Indiana
Current Conditions -  °F | °C
As of 11:54 AM on Thursday 30 Oct 2014 (Local Time) from KSBN Reporting Station
Few Clouds Few Clouds  
Wind Chill: 50°   Ceiling: Unl
Heat Index: 50°   Visibility: 10mi
Dew Point: 33°   Wind: 10mph
Humidity: 52%   Direction: 240°WSW
Pressure: 30.15"   Gusts: NA
Location:  41.72°N, 86.25°W
Report Text: KSBN 301554Z 24009KT 10SM FEW042 10/01 A3015 RMK AO2 SLP212 T01000006
Loading
Personal Weather Stations






























Interactive Weather Map
Tropical Storm Tracking
New forecast layout! Learn more

10-Day Weather Forecast

Advertisements
Track Severe Weather on mobile